Time;durP1;ratioP1;P1;durP2;ratioP2;P2;SDS_P1;SDS_P2;PMS_P1;PMS_P2;Temp;Humidity;BMP_temperature;BMP_pressure;BME280_temperature;BME280_humidity;BME280_pressure;Samples;Min_cycle;Max_cycle;Signal;HPM_P1;HPM_P2
2024/01/19 00:01:44;;;;;;;16.80;8.90;;;0.10;99.90;;;;;;5064743;28;20025;-46
2024/01/19 00:04:10;;;;;;;17.65;9.32;;;0.20;99.90;;;;;;5065829;28;20033;-47
2024/01/19 00:06:39;;;;;;;17.23;8.52;;;0.20;99.90;;;;;;5065214;28;20290;-46
2024/01/19 00:09:05;;;;;;;15.10;8.17;;;0.20;99.90;;;;;;5065945;28;20271;-46
2024/01/19 00:11:31;;;;;;;16.77;7.93;;;0.10;99.90;;;;;;5065596;28;20082;-48
2024/01/19 00:13:57;;;;;;;18.85;8.25;;;0.10;99.90;;;;;;5065624;28;20029;-46
2024/01/19 00:16:23;;;;;;;12.93;7.88;;;0.10;99.90;;;;;;5064438;28;20322;-46
2024/01/19 00:18:48;;;;;;;13.93;7.45;;;0.10;99.90;;;;;;5065950;28;20044;-47
2024/01/19 00:21:14;;;;;;;12.90;7.60;;;0.10;99.90;;;;;;5065251;28;20295;-46
2024/01/19 00:23:40;;;;;;;17.10;8.43;;;0.10;99.90;;;;;;5064476;28;20016;-47
2024/01/19 00:26:07;;;;;;;15.38;7.57;;;0.00;99.90;;;;;;5064853;28;20029;-46
2024/01/19 00:28:32;;;;;;;14.98;7.35;;;-0.10;99.90;;;;;;5065547;28;20029;-47
2024/01/19 00:30:58;;;;;;;10.75;6.32;;;-0.10;99.90;;;;;;5065799;28;20233;-47
2024/01/19 00:33:24;;;;;;;14.15;7.00;;;-0.10;99.90;;;;;;5065558;28;20338;-47
2024/01/19 00:35:49;;;;;;;11.10;6.55;;;-0.10;99.90;;;;;;5065262;28;20299;-46
2024/01/19 00:38:15;;;;;;;17.83;7.80;;;-0.10;99.90;;;;;;5065373;28;20052;-46
2024/01/19 00:40:40;;;;;;;13.07;6.05;;;-0.20;99.90;;;;;;5065515;28;20056;-46
2024/01/19 00:43:06;;;;;;;12.55;6.43;;;-0.20;99.90;;;;;;5065484;28;20114;-46
2024/01/19 00:45:32;;;;;;;15.82;6.80;;;-0.20;99.90;;;;;;5065138;28;20036;-46
2024/01/19 00:47:57;;;;;;;15.70;7.35;;;-0.30;99.90;;;;;;5064967;28;20021;-49
2024/01/19 00:50:23;;;;;;;13.88;7.03;;;-0.30;99.90;;;;;;5065313;28;20029;-49
2024/01/19 00:52:49;;;;;;;16.25;7.18;;;-0.30;99.90;;;;;;5064247;28;20032;-49
2024/01/19 00:55:14;;;;;;;13.57;7.05;;;-0.30;99.90;;;;;;5064992;28;20037;-49
2024/01/19 00:57:40;;;;;;;14.68;6.70;;;-0.20;99.90;;;;;;5065268;28;20095;-48
2024/01/19 01:00:06;;;;;;;16.27;7.38;;;-0.30;99.90;;;;;;5065224;28;20175;-48
2024/01/19 01:02:32;;;;;;;20.35;8.25;;;-0.30;99.90;;;;;;5064173;28;20060;-48
2024/01/19 01:04:58;;;;;;;13.77;6.95;;;-0.30;99.90;;;;;;5065259;28;20029;-46
2024/01/19 01:07:24;;;;;;;12.90;6.25;;;-0.30;99.90;;;;;;5065146;28;20067;-47
2024/01/19 01:09:49;;;;;;;14.65;6.13;;;-0.40;99.90;;;;;;5064212;28;20037;-47
2024/01/19 01:12:15;;;;;;;11.23;6.03;;;-0.40;99.90;;;;;;5065230;28;20043;-46
2024/01/19 01:14:41;;;;;;;15.23;6.18;;;-0.50;99.90;;;;;;5065143;28;20025;-46
2024/01/19 01:17:07;;;;;;;12.88;5.90;;;-0.50;99.90;;;;;;5065042;28;20064;-46
2024/01/19 01:19:32;;;;;;;11.65;6.40;;;-0.50;99.90;;;;;;5068935;28;20024;-47
2024/01/19 01:21:58;;;;;;;13.68;6.75;;;-0.40;99.90;;;;;;5067714;28;20029;-47
2024/01/19 01:24:24;;;;;;;9.13;5.82;;;-0.40;99.90;;;;;;5068974;28;20123;-46
2024/01/19 01:26:50;;;;;;;12.70;6.05;;;-0.40;99.90;;;;;;5068916;28;20028;-46
2024/01/19 01:29:15;;;;;;;13.20;6.65;;;-0.30;99.90;;;;;;5067710;28;20092;-48
2024/01/19 01:31:41;;;;;;;11.02;6.35;;;-0.40;99.90;;;;;;5068569;28;20033;-47
2024/01/19 01:34:08;;;;;;;11.68;5.68;;;-0.40;99.90;;;;;;5068864;28;20033;-46
2024/01/19 01:36:33;;;;;;;13.80;6.18;;;-0.40;99.90;;;;;;5068760;28;20100;-46
2024/01/19 01:38:59;;;;;;;12.55;5.32;;;-0.30;99.90;;;;;;5068173;28;20037;-46
2024/01/19 01:41:24;;;;;;;11.48;5.70;;;-0.30;99.90;;;;;;5068479;28;20037;-46
2024/01/19 01:43:50;;;;;;;11.40;5.68;;;-0.40;99.90;;;;;;5068377;28;20032;-46
2024/01/19 01:46:16;;;;;;;11.10;5.78;;;-0.40;99.90;;;;;;5068432;28;20079;-47
2024/01/19 01:48:41;;;;;;;10.05;6.00;;;-0.30;99.90;;;;;;5067404;28;20032;-46
2024/01/19 01:51:08;;;;;;;18.55;8.02;;;-0.40;99.90;;;;;;5067389;28;20043;-47
2024/01/19 01:53:34;;;;;;;13.52;6.63;;;-0.40;99.90;;;;;;5068146;28;20029;-49
2024/01/19 01:56:00;;;;;;;8.23;5.63;;;-0.30;99.90;;;;;;5067343;28;20033;-47
2024/01/19 01:58:26;;;;;;;11.25;5.15;;;-0.30;99.90;;;;;;5068387;28;20267;-47
2024/01/19 02:00:51;;;;;;;12.32;6.10;;;-0.30;99.90;;;;;;5067195;28;20171;-49
2024/01/19 02:03:17;;;;;;;11.77;5.55;;;-0.30;99.90;;;;;;5067240;28;20029;-46
2024/01/19 02:05:43;;;;;;;15.27;6.63;;;-0.20;99.90;;;;;;5050358;28;20025;-47
2024/01/19 02:08:08;;;;;;;12.48;5.72;;;-0.40;99.90;;;;;;5067183;28;20037;-47
2024/01/19 02:10:34;;;;;;;15.57;5.90;;;-0.30;99.90;;;;;;5066886;28;20071;-47
2024/01/19 02:13:00;;;;;;;11.93;5.53;;;-0.40;99.90;;;;;;5067013;28;20020;-54
2024/01/19 02:15:26;;;;;;;9.48;5.32;;;-0.30;99.90;;;;;;5066833;28;20052;-47
2024/01/19 02:17:52;;;;;;;12.00;5.40;;;-0.40;99.90;;;;;;5067948;28;20056;-48
2024/01/19 02:20:18;;;;;;;10.93;4.95;;;-0.40;99.90;;;;;;5066848;28;20295;-47
2024/01/19 02:22:44;;;;;;;11.77;5.57;;;-0.40;99.90;;;;;;5066827;28;20096;-47
2024/01/19 02:25:10;;;;;;;9.82;5.10;;;-0.40;99.90;;;;;;5067374;28;20029;-47
2024/01/19 02:27:36;;;;;;;10.45;5.75;;;-0.30;99.90;;;;;;5066682;28;20032;-49
2024/01/19 02:30:02;;;;;;;10.70;5.78;;;-0.40;99.90;;;;;;5049115;28;20096;-48
2024/01/19 02:32:27;;;;;;;11.73;5.85;;;-0.40;99.90;;;;;;5067656;28;20033;-48
2024/01/19 02:34:53;;;;;;;9.93;4.82;;;-0.40;99.90;;;;;;5067731;28;20029;-47
2024/01/19 02:37:20;;;;;;;8.63;4.47;;;-0.40;99.90;;;;;;5067512;28;20025;-47
2024/01/19 02:39:46;;;;;;;7.25;4.55;;;-0.40;99.90;;;;;;5050027;28;20029;-47
2024/01/19 02:42:11;;;;;;;8.25;4.25;;;-0.50;99.90;;;;;;5066985;28;20044;-48
2024/01/19 02:44:37;;;;;;;8.18;4.10;;;-0.40;99.90;;;;;;5067421;28;20028;-49
2024/01/19 02:47:03;;;;;;;9.90;4.65;;;-0.50;99.90;;;;;;5067421;28;20036;-48
2024/01/19 02:49:29;;;;;;;7.95;4.40;;;-0.50;99.90;;;;;;5067322;28;20096;-48
2024/01/19 02:51:54;;;;;;;10.13;5.00;;;-0.50;99.90;;;;;;5066258;28;20029;-47
2024/01/19 02:54:20;;;;;;;8.25;4.15;;;-0.50;99.90;;;;;;5066817;28;20032;-47
2024/01/19 02:56:46;;;;;;;7.15;4.00;;;-0.50;99.90;;;;;;5066056;28;20220;-46
2024/01/19 02:59:11;;;;;;;8.40;3.88;;;-0.50;99.90;;;;;;5067240;28;20284;-46
2024/01/19 03:01:37;;;;;;;10.25;3.85;;;-0.50;99.90;;;;;;5066837;28;20275;-47
2024/01/19 03:04:03;;;;;;;7.63;3.55;;;-0.60;99.90;;;;;;5067177;28;20299;-47
2024/01/19 03:06:29;;;;;;;7.05;3.97;;;-0.60;99.90;;;;;;5067146;28;20021;-47
2024/01/19 03:08:55;;;;;;;7.55;3.53;;;-0.60;99.90;;;;;;5065978;28;20274;-46
2024/01/19 03:11:20;;;;;;;6.15;3.47;;;-0.60;99.90;;;;;;5066914;28;20036;-48
2024/01/19 03:13:46;;;;;;;7.95;3.65;;;-0.60;99.90;;;;;;5065861;28;20242;-47
2024/01/19 03:16:12;;;;;;;10.60;4.57;;;-0.60;99.90;;;;;;5048838;28;20049;-47
2024/01/19 03:18:37;;;;;;;6.03;3.88;;;-0.60;99.90;;;;;;5066910;28;20041;-46
2024/01/19 03:21:03;;;;;;;6.30;3.75;;;-0.60;99.90;;;;;;5066729;28;20098;-46
2024/01/19 03:23:29;;;;;;;7.38;3.20;;;-0.60;99.90;;;;;;5066638;28;20025;-46
2024/01/19 03:25:54;;;;;;;5.65;3.33;;;-0.60;99.90;;;;;;5066205;28;20028;-46
2024/01/19 03:28:20;;;;;;;7.57;3.55;;;-0.70;99.90;;;;;;5066503;28;20088;-46
2024/01/19 03:30:45;;;;;;;6.55;3.30;;;-0.70;99.90;;;;;;5066644;28;20052;-46
2024/01/19 03:33:11;;;;;;;6.95;3.20;;;-0.70;99.90;;;;;;5066561;28;20056;-46
2024/01/19 03:35:37;;;;;;;5.00;3.30;;;-0.70;99.90;;;;;;5066425;28;20059;-47
2024/01/19 03:38:02;;;;;;;6.97;3.08;;;-0.70;99.90;;;;;;5066402;28;20040;-47
2024/01/19 03:40:28;;;;;;;7.43;3.40;;;-0.70;99.90;;;;;;5065113;28;20036;-46
2024/01/19 03:42:54;;;;;;;8.02;3.35;;;-0.70;99.90;;;;;;5066358;28;20374;-46
2024/01/19 03:45:19;;;;;;;8.65;3.63;;;-0.60;99.90;;;;;;5066214;28;20225;-46
2024/01/19 03:47:46;;;;;;;5.68;3.28;;;-0.50;99.90;;;;;;5066044;28;20051;-46
2024/01/19 03:50:12;;;;;;;5.35;3.15;;;-0.60;99.90;;;;;;5066060;28;20041;-48
2024/01/19 03:52:37;;;;;;;5.97;3.10;;;-0.60;99.90;;;;;;5066094;28;20240;-49
2024/01/19 03:55:06;;;;;;;6.82;3.15;;;-0.50;99.90;;;;;;5066121;28;20029;-48
2024/01/19 03:57:32;;;;;;;7.88;3.00;;;-0.60;99.90;;;;;;5065840;28;20126;-47
2024/01/19 03:59:58;;;;;;;5.32;2.97;;;-0.60;99.90;;;;;;5065819;28;20039;-46
2024/01/19 04:02:23;;;;;;;6.50;3.05;;;-0.60;99.90;;;;;;5065606;28;20229;-46
2024/01/19 04:04:49;;;;;;;11.40;3.13;;;-0.60;99.90;;;;;;5065966;28;20115;-46
2024/01/19 04:07:15;;;;;;;7.28;3.00;;;-0.60;99.90;;;;;;5065539;28;20033;-47
2024/01/19 04:09:41;;;;;;;8.18;2.80;;;-0.50;99.90;;;;;;5065711;28;20052;-45
2024/01/19 04:12:14;;;;;;;6.22;2.60;;;-0.60;99.90;;;;;;5065710;28;20067;-46
2024/01/19 04:14:41;;;;;;;6.13;2.72;;;-0.60;99.90;;;;;;5065921;28;20092;-46
2024/01/19 04:17:07;;;;;;;4.82;2.40;;;-0.60;99.90;;;;;;5064431;28;20051;-47
2024/01/19 04:19:33;;;;;;;5.60;2.50;;;-0.60;99.90;;;;;;5065661;28;20063;-46
2024/01/19 04:21:59;;;;;;;7.13;2.60;;;-0.70;99.90;;;;;;5065776;28;20029;-49
2024/01/19 04:24:25;;;;;;;5.57;2.72;;;-0.70;99.90;;;;;;5065602;28;20179;-46
2024/01/19 04:26:50;;;;;;;8.48;2.50;;;-0.80;99.90;;;;;;5065711;28;20280;-47
2024/01/19 04:29:16;;;;;;;4.60;3.05;;;-0.80;99.90;;;;;;5065245;28;20164;-47
2024/01/19 04:31:41;;;;;;;5.68;2.55;;;-0.80;99.90;;;;;;5065090;28;20028;-47
2024/01/19 04:34:07;;;;;;;8.90;3.05;;;-0.80;99.90;;;;;;5064369;28;20032;-46
2024/01/19 04:36:33;;;;;;;6.55;2.72;;;-0.90;99.90;;;;;;5065512;28;20048;-47
2024/01/19 04:38:58;;;;;;;6.43;2.85;;;-0.80;99.90;;;;;;5064459;28;20302;-47
2024/01/19 04:41:24;;;;;;;3.55;2.20;;;-0.90;99.90;;;;;;5065104;28;20044;-46
2024/01/19 04:43:50;;;;;;;7.13;2.63;;;-0.90;99.90;;;;;;5065401;28;20047;-46
2024/01/19 04:46:15;;;;;;;8.50;2.67;;;-0.90;99.90;;;;;;5065503;28;20032;-48
2024/01/19 04:48:41;;;;;;;5.25;2.83;;;-0.90;99.90;;;;;;5065028;28;20025;-47
2024/01/19 04:51:06;;;;;;;7.03;3.55;;;-0.90;99.90;;;;;;5065350;28;20255;-46
2024/01/19 04:53:32;;;;;;;6.53;2.40;;;-0.90;99.90;;;;;;5068230;28;20068;-46
2024/01/19 04:55:58;;;;;;;7.50;2.75;;;-1.00;99.90;;;;;;5069626;28;20040;-46
2024/01/19 04:58:23;;;;;;;5.53;2.42;;;-0.90;99.90;;;;;;5069405;28;20033;-46
2024/01/19 05:00:49;;;;;;;5.63;2.47;;;-1.00;99.90;;;;;;5069259;28;20032;-47
2024/01/19 05:03:15;;;;;;;5.60;2.53;;;-0.90;99.90;;;;;;5068388;28;20029;-46
2024/01/19 05:05:41;;;;;;;6.63;2.40;;;-0.90;99.90;;;;;;5068905;28;20037;-47
2024/01/19 05:08:06;;;;;;;6.45;2.53;;;-1.00;99.90;;;;;;5068210;28;20025;-47
2024/01/19 05:10:34;;;;;;;8.55;3.10;;;-1.00;99.90;;;;;;5069201;28;20060;-46
2024/01/19 05:12:59;;;;;;;5.88;2.70;;;-1.00;99.90;;;;;;5068049;28;20222;-47
2024/01/19 05:15:25;;;;;;;5.70;2.67;;;-1.00;99.90;;;;;;5069006;28;20048;-47
2024/01/19 05:17:51;;;;;;;4.35;2.53;;;-1.00;99.90;;;;;;5069060;28;20055;-46
2024/01/19 05:20:18;;;;;;;6.05;2.50;;;-1.00;99.90;;;;;;5067746;28;20310;-46
2024/01/19 05:22:44;;;;;;;5.05;2.30;;;-1.00;99.90;;;;;;5067949;28;20132;-47
2024/01/19 05:25:09;;;;;;;6.53;2.50;;;-0.90;99.90;;;;;;5069016;28;20041;-47
2024/01/19 05:27:35;;;;;;;5.15;2.15;;;-1.00;99.90;;;;;;5068891;28;20282;-49
2024/01/19 05:30:01;;;;;;;5.22;2.30;;;-1.10;99.90;;;;;;5068685;28;20223;-46
2024/01/19 05:32:27;;;;;;;5.07;2.35;;;-1.00;99.90;;;;;;5068797;28;20029;-46
2024/01/19 05:34:52;;;;;;;3.72;1.98;;;-1.00;99.90;;;;;;5068735;28;20091;-47
2024/01/19 05:37:18;;;;;;;4.35;2.58;;;-1.10;99.90;;;;;;5068492;28;20088;-47
2024/01/19 05:39:43;;;;;;;5.18;2.45;;;-1.10;99.90;;;;;;5068480;28;20040;-47
2024/01/19 05:42:09;;;;;;;8.75;2.35;;;-1.10;99.90;;;;;;5067481;28;20130;-47
2024/01/19 05:44:35;;;;;;;7.03;3.00;;;-1.10;99.90;;;;;;5067465;28;20032;-46
2024/01/19 05:47:00;;;;;;;6.72;2.63;;;-1.20;99.90;;;;;;5068422;28;20025;-46
2024/01/19 05:49:26;;;;;;;9.60;2.92;;;-1.00;99.90;;;;;;5067464;28;20053;-47
2024/01/19 05:51:52;;;;;;;6.30;2.47;;;-1.00;99.90;;;;;;5068385;28;20029;-48
2024/01/19 05:54:18;;;;;;;7.18;3.22;;;-1.10;99.90;;;;;;5068295;28;20190;-47
2024/01/19 05:56:43;;;;;;;6.75;2.30;;;-1.00;99.90;;;;;;5068299;28;20068;-46
2024/01/19 05:59:09;;;;;;;6.93;3.10;;;-0.90;99.90;;;;;;5067292;28;20156;-46
2024/01/19 06:01:35;;;;;;;6.18;2.80;;;-0.90;99.90;;;;;;5068092;28;20095;-46
2024/01/19 06:04:00;;;;;;;7.32;2.67;;;-0.80;99.90;;;;;;5066739;28;20075;-46
2024/01/19 06:06:26;;;;;;;6.93;3.28;;;-0.80;99.90;;;;;;5067078;28;20032;-46
2024/01/19 06:08:52;;;;;;;5.57;2.83;;;-0.60;99.90;;;;;;5068156;28;20033;-46
2024/01/19 06:11:17;;;;;;;5.90;2.92;;;-0.60;99.90;;;;;;5067760;28;20088;-46
2024/01/19 06:13:45;;;;;;;4.65;2.70;;;-0.60;99.90;;;;;;5068098;28;20044;-46
2024/01/19 06:16:11;;;;;;;4.95;2.55;;;-0.50;99.90;;;;;;5067455;28;20115;-46
2024/01/19 06:18:36;;;;;;;5.65;2.35;;;-0.60;99.90;;;;;;5066856;28;20033;-46
2024/01/19 06:21:02;;;;;;;5.82;2.60;;;-0.50;99.90;;;;;;5067914;28;20028;-47
2024/01/19 06:23:28;;;;;;;4.80;1.90;;;-0.50;99.90;;;;;;5067525;28;20100;-46
2024/01/19 06:25:54;;;;;;;5.10;2.35;;;-0.50;99.90;;;;;;5067947;28;20313;-46
2024/01/19 06:28:21;;;;;;;4.88;1.63;;;-0.60;99.90;;;;;;5067611;28;20036;-46
2024/01/19 06:30:46;;;;;;;4.43;2.00;;;-0.60;99.90;;;;;;5067677;28;20056;-48
2024/01/19 06:33:12;;;;;;;7.75;1.95;;;-0.60;99.90;;;;;;5066621;28;20033;-47
2024/01/19 06:35:38;;;;;;;4.38;2.10;;;-0.60;99.90;;;;;;5066447;28;20032;-49
2024/01/19 06:38:06;;;;;;;5.32;2.47;;;-0.60;99.90;;;;;;5067333;28;20029;-46
2024/01/19 06:40:32;;;;;;;7.80;2.42;;;-0.40;99.90;;;;;;5067537;28;20178;-48
2024/01/19 06:42:57;;;;;;;5.15;2.33;;;-0.30;99.90;;;;;;5066942;28;20020;-49
2024/01/19 06:45:23;;;;;;;5.32;2.55;;;-0.40;99.90;;;;;;5067354;28;20033;-48
2024/01/19 06:47:49;;;;;;;2.90;1.70;;;-0.50;99.90;;;;;;5066613;28;20025;-46
2024/01/19 06:50:14;;;;;;;6.50;2.67;;;-0.40;99.90;;;;;;5067190;28;20179;-48
2024/01/19 06:52:40;;;;;;;9.50;3.90;;;-0.40;99.90;;;;;;5067774;28;20069;-47
2024/01/19 06:55:06;;;;;;;3.97;2.42;;;-0.40;99.90;;;;;;5067285;28;20092;-47
2024/01/19 06:57:32;;;;;;;5.35;2.60;;;-0.40;99.90;;;;;;5066986;28;20036;-47
2024/01/19 06:59:57;;;;;;;9.48;3.55;;;-0.40;99.90;;;;;;5066918;28;20060;-47
2024/01/19 07:02:23;;;;;;;6.95;2.80;;;-0.40;99.90;;;;;;5066901;28;20057;-47
2024/01/19 07:04:49;;;;;;;7.15;2.50;;;-0.30;99.90;;;;;;5067102;28;20031;-47
2024/01/19 07:07:15;;;;;;;5.50;2.03;;;-0.40;99.90;;;;;;5066900;28;20025;-47
2024/01/19 07:09:41;;;;;;;6.07;1.90;;;-0.40;99.90;;;;;;5066754;28;20036;-47
2024/01/19 07:12:06;;;;;;;3.42;1.70;;;-0.40;99.90;;;;;;5066516;28;20075;-47
2024/01/19 07:14:32;;;;;;;4.10;1.95;;;-0.30;99.90;;;;;;5065828;28;20321;-47
2024/01/19 07:16:58;;;;;;;5.32;1.80;;;-0.30;99.90;;;;;;5065117;28;20063;-46
2024/01/19 07:19:23;;;;;;;2.65;1.58;;;-0.30;99.90;;;;;;5066765;28;20033;-48
2024/01/19 07:21:49;;;;;;;4.88;2.10;;;-0.30;99.90;;;;;;5066409;28;20052;-46
2024/01/19 07:24:15;;;;;;;4.57;2.10;;;-0.30;99.90;;;;;;5066772;28;20032;-47
2024/01/19 07:26:41;;;;;;;5.05;2.35;;;-0.30;99.90;;;;;;5066547;28;20135;-47
2024/01/19 07:29:08;;;;;;;3.78;1.60;;;-0.40;99.90;;;;;;5066555;28;20029;-47
2024/01/19 07:31:34;;;;;;;4.13;1.85;;;-0.40;99.90;;;;;;5066833;28;20160;-46
2024/01/19 07:34:00;;;;;;;4.60;1.55;;;-0.40;99.90;;;;;;5065421;28;20031;-46
2024/01/19 07:36:29;;;;;;;5.53;1.42;;;-0.50;99.90;;;;;;5065268;28;20252;-46
2024/01/19 07:38:55;;;;;;;4.95;1.60;;;-0.50;99.90;;;;;;5066367;28;20035;-47
2024/01/19 07:41:20;;;;;;;7.32;2.00;;;-0.50;99.90;;;;;;5066106;28;20029;-46
2024/01/19 07:43:46;;;;;;;3.60;1.77;;;-0.40;99.90;;;;;;5065877;28;20047;-46
2024/01/19 07:46:14;;;;;;;4.45;1.95;;;-0.40;99.90;;;;;;5065907;28;20238;-46
2024/01/19 07:48:42;;;;;;;6.00;2.83;;;-0.30;99.90;;;;;;5065438;28;20032;-47
2024/01/19 07:51:08;;;;;;;8.85;5.82;;;-0.20;99.90;;;;;;5065702;28;20087;-48
2024/01/19 07:53:34;;;;;;;4.55;2.38;;;-0.20;99.90;;;;;;5048051;28;20191;-48
2024/01/19 07:55:59;;;;;;;3.78;1.70;;;0.00;99.90;;;;;;5066087;28;20022;-47
2024/01/19 07:58:25;;;;;;;6.53;2.05;;;-0.10;99.90;;;;;;5065820;28;20283;-47
2024/01/19 08:00:51;;;;;;;7.20;3.13;;;-0.10;99.90;;;;;;5065133;28;20088;-47
2024/01/19 08:03:17;;;;;;;4.85;2.55;;;0.00;99.90;;;;;;5065654;28;20048;-46
2024/01/19 08:05:43;;;;;;;5.80;2.53;;;0.10;99.90;;;;;;5065620;28;20051;-47
2024/01/19 08:08:09;;;;;;;7.03;2.90;;;0.40;99.90;;;;;;5065440;28;20270;-46
2024/01/19 08:10:35;;;;;;;4.07;1.58;;;0.40;99.90;;;;;;5065801;28;20033;-47
2024/01/19 08:13:01;;;;;;;4.60;2.40;;;0.60;99.90;;;;;;5065620;28;20124;-47
2024/01/19 08:15:28;;;;;;;4.13;1.40;;;0.80;99.90;;;;;;5065402;28;20048;-47
2024/01/19 08:17:54;;;;;;;6.85;2.30;;;1.10;99.90;;;;;;5065511;28;20274;-49
2024/01/19 08:20:19;;;;;;;5.07;2.00;;;1.20;99.90;;;;;;5065435;28;20025;-46
2024/01/19 08:22:45;;;;;;;6.93;1.63;;;1.30;99.90;;;;;;5065539;28;20166;-46
2024/01/19 08:25:11;;;;;;;6.00;2.60;;;1.30;99.90;;;;;;5065637;28;20109;-46
2024/01/19 08:27:43;;;;;;;4.28;2.50;;;1.40;99.90;;;;;;5064542;28;20033;-48
2024/01/19 08:30:09;;;;;;;3.47;1.83;;;1.50;99.90;;;;;;5065366;28;20021;-47
2024/01/19 08:32:35;;;;;;;6.43;1.85;;;1.60;99.90;;;;;;5065436;28;20071;-47
2024/01/19 08:35:08;;;;;;;5.90;1.88;;;1.70;99.90;;;;;;5064892;28;20025;-47
2024/01/19 08:37:37;;;;;;;5.32;1.52;;;1.80;99.90;;;;;;5064974;28;20040;-47
2024/01/19 08:40:06;;;;;;;5.00;1.58;;;1.80;99.90;;;;;;5064065;28;20092;-47
2024/01/19 08:42:32;;;;;;;7.93;3.60;;;1.90;99.90;;;;;;5065115;28;20037;-48
2024/01/19 08:44:58;;;;;;;6.97;1.70;;;1.90;99.90;;;;;;5065152;28;20033;-47
2024/01/19 08:47:24;;;;;;;5.45;1.60;;;2.00;99.90;;;;;;5047077;28;20210;-47
2024/01/19 08:49:50;;;;;;;4.32;2.53;;;2.00;99.90;;;;;;5064458;28;20035;-47
2024/01/19 08:52:16;;;;;;;6.82;2.15;;;2.00;99.90;;;;;;5063944;28;20024;-47
2024/01/19 08:54:41;;;;;;;10.15;4.30;;;2.00;99.90;;;;;;5065236;28;20310;-49
2024/01/19 08:57:07;;;;;;;10.55;4.07;;;2.00;99.90;;;;;;5065066;28;20040;-47
2024/01/19 08:59:33;;;;;;;10.50;4.00;;;2.00;99.90;;;;;;5064845;28;20028;-49
2024/01/19 09:01:58;;;;;;;6.05;2.03;;;2.10;99.90;;;;;;5063962;28;20040;-48
2024/01/19 09:04:24;;;;;;;9.18;3.28;;;2.20;99.90;;;;;;5064618;28;20245;-48
2024/01/19 09:06:51;;;;;;;7.88;3.08;;;2.20;99.90;;;;;;5065021;28;20275;-47
2024/01/19 09:09:17;;;;;;;7.30;2.20;;;2.30;99.90;;;;;;5064769;28;20052;-47
2024/01/19 09:11:42;;;;;;;8.10;2.63;;;2.30;99.90;;;;;;5064564;28;20164;-50
2024/01/19 09:14:11;;;;;;;8.35;2.38;;;2.30;99.90;;;;;;5064724;28;20029;-49
2024/01/19 09:16:37;;;;;;;17.08;3.53;;;2.40;99.90;;;;;;5064130;28;20049;-47
2024/01/19 09:19:03;;;;;;;11.27;3.35;;;2.50;99.90;;;;;;5064938;28;20043;-47
2024/01/19 09:21:28;;;;;;;8.38;2.00;;;2.50;99.90;;;;;;5064511;28;20035;-46
2024/01/19 09:23:54;;;;;;;6.95;1.90;;;2.60;99.90;;;;;;5064495;28;20025;-47
2024/01/19 09:26:23;;;;;;;9.05;2.78;;;2.70;99.90;;;;;;5063453;28;20071;-47
2024/01/19 09:28:48;;;;;;;7.47;2.03;;;2.70;99.90;;;;;;5064853;28;20056;-46
2024/01/19 09:31:14;;;;;;;9.27;3.05;;;2.80;99.90;;;;;;5064327;28;20275;-48
2024/01/19 09:33:41;;;;;;;7.93;1.95;;;2.90;99.90;;;;;;5064462;28;20082;-47
2024/01/19 09:36:07;;;;;;;8.90;1.90;;;3.10;99.90;;;;;;5064429;28;20047;-50
2024/01/19 09:38:37;;;;;;;12.25;3.22;;;3.30;99.90;;;;;;5065672;28;20029;-47
2024/01/19 09:41:10;;;;;;;3.70;1.25;;;5.00;99.90;;;;;;5068213;28;20033;-45
2024/01/19 09:43:35;;;;;;;13.95;3.67;;;5.00;99.90;;;;;;5068017;28;20025;-45
2024/01/19 09:46:05;;;;;;;5.70;1.17;;;4.70;99.90;;;;;;5066946;28;20029;-45
2024/01/19 09:48:35;;;;;;;5.53;1.58;;;4.80;99.90;;;;;;5068083;28;20040;-44
2024/01/19 09:51:01;;;;;;;6.30;1.52;;;5.10;99.90;;;;;;5067141;28;20113;-45
2024/01/19 09:53:27;;;;;;;5.95;1.50;;;5.10;99.90;;;;;;5067462;28;20032;-47
2024/01/19 09:55:53;;;;;;;5.22;1.27;;;5.70;99.90;;;;;;5067848;28;20233;-45
2024/01/19 09:58:20;;;;;;;6.93;2.00;;;5.50;99.90;;;;;;5066772;28;20048;-48
2024/01/19 10:00:48;;;;;;;5.22;1.70;;;5.20;99.90;;;;;;5067569;28;20147;-48
2024/01/19 10:03:14;;;;;;;6.57;1.33;;;5.70;99.90;;;;;;5066708;28;20017;-46
2024/01/19 10:05:39;;;;;;;2.35;1.20;;;5.20;99.90;;;;;;5050012;28;20176;-48
2024/01/19 10:08:05;;;;;;;4.40;1.85;;;5.00;99.90;;;;;;5067380;28;20036;-46
2024/01/19 10:10:31;;;;;;;2.65;1.30;;;4.70;99.90;;;;;;5066818;28;20025;-46
2024/01/19 10:12:56;;;;;;;7.50;1.35;;;4.50;99.90;;;;;;5066344;28;20033;-46
2024/01/19 10:15:22;;;;;;;3.10;1.05;;;4.30;99.90;;;;;;5066669;28;20049;-44
2024/01/19 10:17:48;;;;;;;6.97;1.77;;;4.20;99.90;;;;;;5066961;28;20048;-45
2024/01/19 10:20:14;;;;;;;2.30;0.90;;;4.20;99.90;;;;;;5066501;28;20224;-44
2024/01/19 10:22:40;;;;;;;4.53;1.02;;;4.20;99.90;;;;;;5066101;28;20143;-44
2024/01/19 10:25:08;;;;;;;4.47;1.35;;;4.20;99.90;;;;;;5067500;28;20013;-45
2024/01/19 10:27:48;;;;;;;3.42;1.10;;;4.30;99.90;;;;;;5049869;28;20048;-45
2024/01/19 10:30:14;;;;;;;;;;;4.30;99.90;;;;;;5067941;28;20032;-45
2024/01/19 10:32:40;;;;;;;5.00;0.80;;;4.30;99.90;;;;;;5067278;28;19920;-45
2024/01/19 10:35:10;;;;;;;2.97;1.58;;;4.40;99.90;;;;;;5067262;28;20033;-45
2024/01/19 10:37:36;;;;;;;2.42;0.93;;;4.50;99.90;;;;;;5066864;28;20045;-47
2024/01/19 10:40:19;;;;;;;3.08;1.05;;;4.70;99.90;;;;;;5065985;28;20060;-46
2024/01/19 10:42:46;;;;;;;3.33;0.80;;;4.90;99.90;;;;;;5066589;28;20163;-48
2024/01/19 10:45:22;;;;;;;2.45;0.98;;;5.00;99.90;;;;;;5067064;28;20017;-45
2024/01/19 10:47:52;;;;;;;5.13;1.70;;;5.20;99.90;;;;;;5066622;28;20033;-45
2024/01/19 10:50:19;;;;;;;3.20;1.02;;;5.30;99.90;;;;;;5066115;28;20148;-45
2024/01/19 10:52:46;;;;;;;3.55;1.00;;;5.30;99.90;;;;;;5067108;28;20075;-46
2024/01/19 10:55:25;;;;;;;3.17;1.00;;;5.40;99.90;;;;;;5066900;28;20213;-48
2024/01/19 10:57:52;;;;;;;2.67;0.70;;;5.50;99.90;;;;;;5066807;28;20017;-46
2024/01/19 11:00:20;;;;;;;17.40;9.00;;;5.60;99.90;;;;;;5066770;28;20191;-45
2024/01/19 11:02:53;;;;;;;6.22;3.08;;;5.60;99.90;;;;;;5066655;28;20171;-48
2024/01/19 11:05:19;;;;;;;18.10;8.30;;;5.60;99.90;;;;;;5066359;28;20090;-45
2024/01/19 11:07:46;;;;;;;66.95;26.52;;;5.60;99.90;;;;;;5066609;28;20028;-48
2024/01/19 11:10:12;;;;;;;89.05;38.30;;;5.40;99.90;;;;;;5065546;28;20039;-47
2024/01/19 11:12:39;;;;;;;95.20;42.95;;;5.40;99.90;;;;;;5065573;28;20033;-47
2024/01/19 11:15:07;;;;;;;47.50;22.48;;;5.30;99.90;;;;;;5065374;28;20298;-48
2024/01/19 11:17:32;;;;;;;16.75;7.55;;;5.30;99.90;;;;;;5065455;28;20070;-48
2024/01/19 11:19:58;;;;;;;2.95;1.88;;;5.30;99.90;;;;;;5066123;28;20056;-45
2024/01/19 11:22:24;;;;;;;8.98;5.45;;;5.30;99.90;;;;;;5065116;28;20029;-47
2024/01/19 11:24:50;;;;;;;4.45;2.30;;;5.40;99.90;;;;;;5065191;28;20093;-45
2024/01/19 11:27:20;;;;;;;4.75;2.58;;;5.40;99.90;;;;;;5048420;28;20092;-45
2024/01/19 11:29:46;;;;;;;5.18;2.10;;;5.50;99.90;;;;;;5066246;28;20211;-44
2024/01/19 11:32:14;;;;;;;5.50;1.92;;;5.50;99.90;;;;;;5048649;28;20032;-45
2024/01/19 11:34:47;;;;;;;3.65;1.25;;;5.50;99.90;;;;;;5065039;28;20091;-45
2024/01/19 11:37:43;;;;;;;6.40;3.40;;;5.50;99.90;;;;;;5064963;28;20140;-44
2024/01/19 11:40:09;;;;;;;13.68;6.18;;;5.50;99.90;;;;;;5065514;28;20294;-48
2024/01/19 11:42:34;;;;;;;40.67;18.40;;;5.70;99.90;;;;;;5065810;28;20086;-47
2024/01/19 11:45:00;;;;;;;19.40;6.97;;;5.80;99.90;;;;;;5066154;28;20025;-48
2024/01/19 11:47:35;;;;;;;13.85;6.93;;;5.80;99.90;;;;;;5065749;28;20135;-48
2024/01/19 11:50:01;;;;;;;10.18;4.63;;;5.90;99.90;;;;;;5065689;28;20024;-45
2024/01/19 11:52:35;;;;;;;8.90;2.88;;;5.90;99.90;;;;;;5065688;28;20025;-47
2024/01/19 11:55:27;;;;;;;37.35;15.05;;;5.90;99.90;;;;;;5065824;28;20221;-45
2024/01/19 11:57:53;;;;;;;7.00;3.28;;;5.90;99.90;;;;;;5065412;28;20114;-45
2024/01/19 12:00:19;;;;;;;12.65;8.10;;;6.10;99.90;;;;;;5065876;28;20044;-46
2024/01/19 12:02:45;;;;;;;11.57;6.68;;;7.70;99.90;;;;;;5065844;28;20029;-49
2024/01/19 12:05:11;;;;;;;10.30;5.57;;;9.00;99.90;;;;;;5065374;28;20048;-49
2024/01/19 12:07:37;;;;;;;8.23;4.32;;;9.50;99.90;;;;;;5065409;28;20020;-48
2024/01/19 12:10:09;;;;;;;13.75;6.85;;;9.30;99.90;;;;;;5065465;28;20086;-51
2024/01/19 12:12:35;;;;;;;3.75;2.30;;;9.30;99.90;;;;;;5065493;28;20040;-51
2024/01/19 12:15:01;;;;;;;9.75;6.70;;;9.00;99.90;;;;;;5065488;28;20032;-50
2024/01/19 12:17:28;;;;;;;9.50;4.30;;;8.80;99.90;;;;;;5065041;28;20032;-51
2024/01/19 12:19:54;;;;;;;8.98;4.35;;;10.20;99.90;;;;;;5064168;28;20025;-51
2024/01/19 12:22:20;;;;;;;6.18;2.17;;;10.50;99.90;;;;;;5065137;28;20112;-52
2024/01/19 12:24:45;;;;;;;9.55;4.28;;;11.10;99.90;;;;;;5047717;28;20028;-48
2024/01/19 12:27:17;;;;;;;7.32;3.88;;;11.50;99.90;;;;;;5064381;28;20084;-50
2024/01/19 12:29:42;;;;;;;8.90;3.35;;;9.60;99.90;;;;;;5065080;28;20025;-50
2024/01/19 12:32:09;;;;;;;4.68;2.42;;;9.30;99.90;;;;;;5065265;28;20063;-50
2024/01/19 12:34:35;;;;;;;11.80;4.47;;;9.40;99.90;;;;;;5065334;28;20040;-49
2024/01/19 12:37:01;;;;;;;4.32;2.30;;;8.80;99.90;;;;;;5063999;28;20361;-49
2024/01/19 12:39:27;;;;;;;3.95;2.10;;;10.70;99.90;;;;;;5064901;28;20047;-49
2024/01/19 12:42:05;;;;;;;5.07;1.77;;;11.80;99.90;;;;;;5065377;28;20037;-50
2024/01/19 12:44:31;;;;;;;3.20;2.10;;;12.10;99.90;;;;;;5065050;28;20028;-50